createdAt,value
2022-11-29T00:01:17.340Z,100563.50
2022-11-29T00:03:44.847Z,100560.00
2022-11-29T00:06:14.982Z,100564.25
2022-11-29T00:08:42.307Z,100563.41
2022-11-29T00:11:14.264Z,100562.22
2022-11-29T00:13:40.864Z,100562.69
2022-11-29T00:16:14.704Z,100570.47
2022-11-29T00:18:41.323Z,100560.88
2022-11-29T00:21:08.605Z,100562.34
2022-11-29T00:23:35.991Z,100563.69
2022-11-29T00:26:07.298Z,100565.91
2022-11-29T00:28:35.575Z,100562.06
2022-11-29T00:31:23.207Z,100561.59
2022-11-29T00:33:50.645Z,100562.91
2022-11-29T00:36:17.907Z,100570.75
2022-11-29T00:38:44.484Z,100563.09
2022-11-29T00:41:11.477Z,100573.22
2022-11-29T00:43:39.296Z,100575.91
2022-11-29T00:46:06.443Z,100569.13
2022-11-29T00:48:33.938Z,100571.75
2022-11-29T00:51:01.362Z,100576.34
2022-11-29T00:53:28.114Z,100574.50
2022-11-29T00:55:54.719Z,100578.72
2022-11-29T00:58:22.132Z,100574.09
2022-11-29T01:00:49.035Z,100582.75
2022-11-29T01:03:16.797Z,100577.47
2022-11-29T01:05:43.851Z,100577.53
2022-11-29T01:08:13.761Z,100575.56
2022-11-29T01:10:41.531Z,100586.56
2022-11-29T01:13:08.773Z,100582.13
2022-11-29T01:15:36.290Z,100580.78
2022-11-29T01:18:03.266Z,100585.63
2022-11-29T01:20:29.849Z,100581.31
2022-11-29T01:22:56.450Z,100581.63
2022-11-29T01:25:23.046Z,100586.41
2022-11-29T01:27:49.559Z,100582.50
2022-11-29T01:30:16.167Z,100584.72
2022-11-29T01:32:42.841Z,100589.16
2022-11-29T01:35:09.467Z,100582.06
2022-11-29T01:37:36.038Z,100597.09
2022-11-29T01:40:02.780Z,100599.78
2022-11-29T01:42:29.501Z,100605.88
2022-11-29T01:45:06.735Z,100606.31
2022-11-29T01:47:33.801Z,100593.91
2022-11-29T01:50:02.406Z,100599.84
2022-11-29T01:52:32.813Z,100598.69
2022-11-29T01:55:03.864Z,100606.81
2022-11-29T01:57:32.877Z,100613.41
2022-11-29T02:00:06.537Z,100612.88
2022-11-29T02:02:46.936Z,100612.09
2022-11-29T02:05:16.920Z,100615.97
2022-11-29T02:07:48.315Z,100615.38
2022-11-29T02:10:16.382Z,100606.34
2022-11-29T02:13:05.388Z,100617.22
2022-11-29T02:15:50.615Z,100612.72
2022-11-29T02:18:39.399Z,100614.63
2022-11-29T02:21:19.691Z,100622.66
2022-11-29T02:24:01.491Z,100621.88
2022-11-29T02:26:59.211Z,100614.63
2022-11-29T02:29:43.468Z,100623.97
2022-11-29T02:32:37.943Z,100624.47
2022-11-29T02:35:28.750Z,100631.19
2022-11-29T02:38:32.963Z,100620.50
2022-11-29T02:40:59.453Z,100629.13
2022-11-29T02:43:44.785Z,100626.66
2022-11-29T02:46:44.966Z,100633.84
2022-11-29T02:49:23.736Z,100631.03
2022-11-29T02:52:08.576Z,100637.47
2022-11-29T02:54:53.537Z,100636.50
2022-11-29T02:57:36.537Z,100650.50
2022-11-29T03:00:11.383Z,100637.66
2022-11-29T03:02:53.154Z,100646.19
2022-11-29T03:05:45.458Z,100643.16
2022-11-29T03:08:33.956Z,100650.88
2022-11-29T03:11:29.922Z,100647.75
2022-11-29T03:14:11.754Z,100657.22
2022-11-29T03:17:09.054Z,100659.44
2022-11-29T03:19:50.792Z,100658.28
2022-11-29T03:22:35.399Z,100659.56
2022-11-29T03:25:22.426Z,100661.28
2022-11-29T03:28:17.479Z,100663.78
2022-11-29T03:31:15.687Z,100668.03
2022-11-29T03:34:14.290Z,100667.38
2022-11-29T03:36:47.955Z,100677.50
2022-11-29T03:39:22.025Z,100677.34
2022-11-29T03:41:55.320Z,100687.97
2022-11-29T03:44:27.676Z,100678.56
2022-11-29T03:47:17.111Z,100686.28
2022-11-29T03:49:56.202Z,100690.88
2022-11-29T03:53:04.710Z,100696.16
2022-11-29T03:55:47.759Z,100695.00
2022-11-29T03:58:43.964Z,100699.06
2022-11-29T04:01:44.513Z,100697.81
2022-11-29T04:04:30.322Z,100698.81
2022-11-29T04:07:12.161Z,100697.28
2022-11-29T04:10:00.450Z,100698.88
2022-11-29T04:13:00.730Z,100703.78
2022-11-29T04:15:46.256Z,100706.94
2022-11-29T04:18:31.527Z,100708.66
2022-11-29T04:21:31.296Z,100718.16
2022-11-29T04:24:14.740Z,100717.03
2022-11-29T04:26:50.369Z,100711.91
2022-11-29T04:29:55.127Z,100713.03
2022-11-29T04:32:22.165Z,100717.09
2022-11-29T04:35:15.387Z,100714.59
2022-11-29T04:38:13.017Z,100726.91
2022-11-29T04:41:02.197Z,100725.09
2022-11-29T04:43:56.730Z,100724.44
2022-11-29T04:46:31.517Z,100719.25
2022-11-29T04:49:20.034Z,100724.59
2022-11-29T04:52:19.573Z,100722.06
2022-11-29T04:54:56.305Z,100723.25
2022-11-29T04:57:46.126Z,100726.97
2022-11-29T05:00:21.756Z,100723.34
2022-11-29T05:02:55.643Z,100732.66
2022-11-29T05:05:43.025Z,100733.66
2022-11-29T05:08:46.687Z,100738.31
2022-11-29T05:11:50.259Z,100737.06
2022-11-29T05:14:24.062Z,100734.69
2022-11-29T05:17:32.444Z,100738.31
2022-11-29T05:20:22.830Z,100738.31
2022-11-29T05:23:01.719Z,100749.72
2022-11-29T05:26:07.214Z,100742.78
2022-11-29T05:28:58.492Z,100741.06
2022-11-29T05:31:56.411Z,100748.00
2022-11-29T05:34:37.165Z,100753.31
2022-11-29T05:37:42.624Z,100758.81
2022-11-29T05:40:36.124Z,100755.94
2022-11-29T05:43:08.824Z,100766.25
2022-11-29T05:46:06.093Z,100766.69
2022-11-29T05:48:57.543Z,100771.72
2022-11-29T05:51:33.249Z,100767.00
2022-11-29T05:54:21.737Z,100770.88
2022-11-29T05:57:19.478Z,100777.72
2022-11-29T05:59:49.676Z,100785.72
2022-11-29T06:02:51.922Z,100785.88
2022-11-29T06:05:24.288Z,100796.31
2022-11-29T06:08:15.772Z,100796.50
2022-11-29T06:10:57.141Z,100796.28
2022-11-29T06:13:42.447Z,100804.63
2022-11-29T06:16:35.517Z,100800.81
2022-11-29T06:19:39.896Z,100816.69
2022-11-29T06:22:38.296Z,100816.78
2022-11-29T06:25:43.124Z,100822.91
2022-11-29T06:28:28.653Z,100822.38
2022-11-29T06:31:02.238Z,100822.09
2022-11-29T06:33:36.353Z,100828.72
2022-11-29T06:36:20.901Z,100829.56
2022-11-29T06:38:47.679Z,100834.44
2022-11-29T06:41:19.714Z,100840.63
2022-11-29T06:43:47.164Z,100843.38
2022-11-29T06:46:13.674Z,100840.72
2022-11-29T06:48:49.379Z,100849.34
2022-11-29T06:51:29.582Z,100852.34
2022-11-29T06:54:14.451Z,100848.56
2022-11-29T06:56:54.878Z,100853.03
2022-11-29T06:59:56.633Z,100858.63
2022-11-29T07:02:31.678Z,100857.59
2022-11-29T07:05:19.686Z,100859.97
2022-11-29T07:07:47.121Z,100868.97
2022-11-29T07:10:18.844Z,100867.75
2022-11-29T07:12:47.220Z,100864.03
2022-11-29T07:15:19.877Z,100871.47
2022-11-29T07:18:24.793Z,100867.66
2022-11-29T07:21:32.599Z,100870.88
2022-11-29T07:24:07.890Z,100875.22
2022-11-29T07:26:59.589Z,100883.31
2022-11-29T07:29:40.673Z,100879.22
2022-11-29T07:32:35.069Z,100883.69
2022-11-29T07:35:12.891Z,100888.44
2022-11-29T07:37:45.549Z,100885.50
2022-11-29T07:40:37.211Z,100889.38
2022-11-29T07:43:18.287Z,100896.88
2022-11-29T07:45:45.749Z,100894.22
2022-11-29T07:48:13.499Z,100900.00
2022-11-29T07:50:40.984Z,100905.81
2022-11-29T07:53:15.349Z,100910.84
2022-11-29T07:55:42.229Z,100909.13
2022-11-29T07:58:11.875Z,100908.06
2022-11-29T08:00:39.546Z,100912.94
2022-11-29T08:03:06.188Z,100910.28
2022-11-29T08:05:32.711Z,100922.81
2022-11-29T08:07:59.749Z,100920.22
2022-11-29T08:10:26.913Z,100915.97
2022-11-29T08:12:54.181Z,100921.28
2022-11-29T08:15:22.946Z,100919.75
2022-11-29T08:17:49.565Z,100921.84
2022-11-29T08:20:17.054Z,100916.34
2022-11-29T08:22:43.961Z,100919.19
2022-11-29T08:25:11.164Z,100928.19
2022-11-29T08:27:38.241Z,100933.31
2022-11-29T08:30:06.345Z,100927.44
2022-11-29T08:32:34.192Z,100929.50
2022-11-29T08:35:00.749Z,100931.03
2022-11-29T08:37:27.332Z,100928.47
2022-11-29T08:39:55.065Z,100936.81
2022-11-29T08:42:21.580Z,100933.47
2022-11-29T08:44:48.216Z,100941.56
2022-11-29T08:47:33.410Z,100932.47
2022-11-29T08:50:02.952Z,100938.34
2022-11-29T08:52:54.107Z,100943.84
2022-11-29T08:55:23.435Z,100955.59
2022-11-29T08:57:51.419Z,100950.94
2022-11-29T09:00:19.009Z,100953.31
2022-11-29T09:02:46.482Z,100959.50
2022-11-29T09:05:13.218Z,100954.78
2022-11-29T09:07:39.900Z,100964.19
2022-11-29T09:10:08.311Z,100971.13
2022-11-29T09:12:39.904Z,100964.41
2022-11-29T09:15:09.433Z,100974.00
2022-11-29T09:17:36.120Z,100971.88
2022-11-29T09:20:04.275Z,100978.16
2022-11-29T09:22:31.247Z,100984.97
2022-11-29T09:24:57.848Z,100983.88
2022-11-29T09:27:24.401Z,100987.38
2022-11-29T09:29:50.960Z,100999.88
2022-11-29T09:32:17.536Z,100992.41
2022-11-29T09:34:44.577Z,100998.66
2022-11-29T09:37:11.376Z,100987.00
2022-11-29T09:39:38.199Z,100992.78
2022-11-29T09:42:23.535Z,100999.50
2022-11-29T09:44:56.133Z,101006.25
2022-11-29T09:47:22.656Z,101002.19
2022-11-29T09:49:58.931Z,101003.31
2022-11-29T09:52:25.504Z,101007.63
2022-11-29T09:54:57.076Z,101016.97
2022-11-29T09:57:24.929Z,101011.56
2022-11-29T09:59:56.148Z,101016.94
2022-11-29T10:02:45.181Z,101013.13
2022-11-29T10:05:26.038Z,101022.16
2022-11-29T10:08:03.042Z,101027.09
2022-11-29T10:10:40.652Z,101021.09
2022-11-29T10:13:16.237Z,101024.94
2022-11-29T10:15:50.222Z,101025.94
2022-11-29T10:18:23.286Z,101025.56
2022-11-29T10:20:52.911Z,101021.19
2022-11-29T10:23:29.772Z,101021.84
2022-11-29T10:25:58.362Z,101030.44
2022-11-29T10:28:30.514Z,101012.84
2022-11-29T10:31:03.004Z,101024.75
2022-11-29T10:33:34.180Z,101020.41
2022-11-29T10:36:09.765Z,101022.59
2022-11-29T10:38:36.235Z,101024.50
2022-11-29T10:41:07.598Z,101020.78
2022-11-29T10:43:37.303Z,101013.72
2022-11-29T10:46:06.062Z,101020.06
2022-11-29T10:48:34.167Z,101020.75
2022-11-29T10:51:02.020Z,101025.78
2022-11-29T10:53:36.522Z,101017.38
2022-11-29T10:56:09.908Z,101018.13
2022-11-29T10:58:52.954Z,101019.72
2022-11-29T11:01:19.800Z,101026.16
2022-11-29T11:03:55.328Z,101021.78
2022-11-29T11:06:26.381Z,101031.41
2022-11-29T11:09:11.948Z,101027.69
2022-11-29T11:11:39.537Z,101031.28
2022-11-29T11:14:20.439Z,101032.47
2022-11-29T11:16:47.062Z,101021.84
2022-11-29T11:19:34.105Z,101028.50
2022-11-29T11:22:03.866Z,101022.44
2022-11-29T11:24:33.763Z,101024.63
2022-11-29T11:27:01.436Z,101022.66
2022-11-29T11:29:36.439Z,101018.75
2022-11-29T11:32:04.885Z,101029.81
2022-11-29T11:34:38.498Z,101027.94
2022-11-29T11:37:19.257Z,101027.28
2022-11-29T11:39:48.289Z,101034.63
2022-11-29T11:42:38.693Z,101029.97
2022-11-29T11:45:11.411Z,101031.19
2022-11-29T11:47:44.014Z,101038.94
2022-11-29T11:50:17.446Z,101040.00
2022-11-29T11:52:53.188Z,101043.56
2022-11-29T11:55:34.320Z,101044.44
2022-11-29T11:58:16.172Z,101049.22
2022-11-29T12:03:35.771Z,101045.84
2022-11-29T12:06:16.926Z,101046.47
2022-11-29T12:08:46.711Z,101043.72
2022-11-29T12:11:17.223Z,101050.31
2022-11-29T12:13:59.148Z,101045.38
2022-11-29T12:16:36.718Z,101043.53
2022-11-29T12:19:07.184Z,101056.38
2022-11-29T12:21:40.326Z,101050.09
2022-11-29T12:24:39.365Z,101049.03
2022-11-29T12:27:10.945Z,101052.09
2022-11-29T12:29:38.185Z,101057.03
2022-11-29T12:32:20.886Z,101060.50
2022-11-29T12:34:58.532Z,101063.66
2022-11-29T12:37:48.325Z,101071.09
2022-11-29T12:40:28.823Z,101069.38
2022-11-29T12:43:14.251Z,101072.88
2022-11-29T12:45:44.984Z,101063.44
2022-11-29T12:48:39.039Z,101075.78
2022-11-29T12:51:52.658Z,101074.41
2022-11-29T12:54:43.772Z,101074.16
2022-11-29T12:57:28.256Z,101074.75
2022-11-29T12:59:57.850Z,101069.72
2022-11-29T13:02:40.767Z,101069.44
2022-11-29T13:05:33.563Z,101077.91
2022-11-29T13:08:22.295Z,101074.25
2022-11-29T13:10:58.338Z,101076.00
2022-11-29T13:13:43.533Z,101071.03
2022-11-29T13:16:33.164Z,101076.59
2022-11-29T13:19:17.952Z,101078.00
2022-11-29T13:22:08.009Z,101091.38
2022-11-29T13:24:43.082Z,101087.53
2022-11-29T13:27:26.213Z,101090.31
2022-11-29T13:29:53.670Z,101090.75
2022-11-29T13:32:45.133Z,101089.19
2022-11-29T13:35:14.814Z,101085.22
2022-11-29T13:38:09.973Z,101094.00
2022-11-29T13:40:53.707Z,101094.84
2022-11-29T13:43:41.372Z,101096.38
2022-11-29T13:46:26.097Z,101083.19
2022-11-29T13:48:54.721Z,101090.00
2022-11-29T13:51:37.359Z,101088.88
2022-11-29T13:54:29.833Z,101091.25
2022-11-29T13:57:07.656Z,101086.44
2022-11-29T13:59:37.178Z,101095.78
2022-11-29T14:02:13.969Z,101097.19
2022-11-29T14:04:45.927Z,101092.66
2022-11-29T14:07:18.449Z,101096.84
2022-11-29T14:09:50.818Z,101102.72
2022-11-29T14:12:39.224Z,101103.34
2022-11-29T14:15:19.399Z,101105.22
2022-11-29T14:17:53.680Z,101099.28
2022-11-29T14:20:23.255Z,101098.53
2022-11-29T14:23:05.217Z,101107.00
2022-11-29T14:28:18.324Z,101112.00
2022-11-29T14:30:47.206Z,101104.84
2022-11-29T14:33:37.966Z,101104.78
2022-11-29T14:36:26.097Z,101105.81
2022-11-29T14:39:24.294Z,101112.53
2022-11-29T14:41:50.833Z,101113.59
2022-11-29T14:44:20.403Z,101115.81
2022-11-29T14:46:48.511Z,101114.56
2022-11-29T14:49:23.639Z,101115.38
2022-11-29T14:52:33.714Z,101118.03
2022-11-29T14:55:06.233Z,101116.34
2022-11-29T14:57:48.310Z,101119.38
2022-11-29T15:00:37.961Z,101121.28
2022-11-29T15:03:12.818Z,101118.25
2022-11-29T15:05:45.647Z,101122.53
2022-11-29T15:08:26.807Z,101122.78
2022-11-29T15:10:58.563Z,101131.94
2022-11-29T15:13:34.878Z,101120.19
2022-11-29T15:16:14.941Z,101122.63
2022-11-29T15:19:20.554Z,101132.53
2022-11-29T15:22:18.002Z,101133.03
2022-11-29T15:24:51.586Z,101136.25
2022-11-29T15:27:18.572Z,101131.06
2022-11-29T15:29:48.700Z,101133.22
2022-11-29T15:32:20.641Z,101137.78
2022-11-29T15:34:51.264Z,101132.25
2022-11-29T15:37:39.154Z,101129.13
2022-11-29T15:40:18.014Z,101137.44
2022-11-29T15:43:11.951Z,101139.53
2022-11-29T15:45:39.712Z,101138.78
2022-11-29T15:48:20.487Z,101142.94
2022-11-29T15:51:19.453Z,101141.88
2022-11-29T15:54:12.115Z,101147.81
2022-11-29T15:56:46.715Z,101153.31
2022-11-29T15:59:19.772Z,101163.09
2022-11-29T16:01:50.151Z,101167.75
2022-11-29T16:04:20.881Z,101157.44
2022-11-29T16:06:49.476Z,101157.94
2022-11-29T16:09:25.020Z,101170.34
2022-11-29T16:11:51.826Z,101162.31
2022-11-29T16:14:25.371Z,101159.75
2022-11-29T16:16:54.304Z,101149.47
2022-11-29T16:19:35.531Z,101159.06
2022-11-29T16:22:16.094Z,101153.41
2022-11-29T16:24:53.697Z,101152.72
2022-11-29T16:27:22.305Z,101153.28
2022-11-29T16:29:50.941Z,101155.31
2022-11-29T16:32:30.083Z,101154.63
2022-11-29T16:35:05.137Z,101155.34
2022-11-29T16:37:39.420Z,101154.97
2022-11-29T16:40:07.297Z,101151.81
2022-11-29T16:42:34.771Z,101151.50
2022-11-29T16:45:34.053Z,101159.75
2022-11-29T16:48:02.649Z,101155.56
2022-11-29T16:50:31.226Z,101158.91
2022-11-29T16:53:33.669Z,101157.44
2022-11-29T16:56:00.271Z,101155.88
2022-11-29T16:58:27.607Z,101158.16
2022-11-29T17:00:54.233Z,101162.59
2022-11-29T17:03:21.073Z,101165.69
2022-11-29T17:05:47.581Z,101164.50
2022-11-29T17:08:14.210Z,101158.94
2022-11-29T17:10:40.956Z,101167.38
2022-11-29T17:13:11.551Z,101166.56
2022-11-29T17:15:38.413Z,101170.06
2022-11-29T17:18:04.996Z,101176.41
2022-11-29T17:20:31.857Z,101169.69
2022-11-29T17:22:58.407Z,101172.06
2022-11-29T17:25:25.186Z,101178.31
2022-11-29T17:27:51.725Z,101176.13
2022-11-29T17:30:18.286Z,101184.88
2022-11-29T17:32:44.915Z,101187.22
2022-11-29T17:35:11.504Z,101177.94
2022-11-29T17:37:38.169Z,101176.03
2022-11-29T17:40:05.481Z,101184.31
2022-11-29T17:42:32.424Z,101196.81
2022-11-29T17:44:59.031Z,101184.81
2022-11-29T17:47:25.621Z,101190.28
2022-11-29T17:49:52.121Z,101186.94
2022-11-29T17:52:18.750Z,101188.97
2022-11-29T17:54:45.247Z,101188.06
2022-11-29T17:57:11.839Z,101187.63
2022-11-29T17:59:38.326Z,101188.13
2022-11-29T18:02:05.284Z,101196.16
2022-11-29T18:04:31.998Z,101189.25
2022-11-29T18:06:58.670Z,101199.63
2022-11-29T18:09:25.364Z,101207.16
2022-11-29T18:11:52.385Z,101196.72
2022-11-29T18:14:23.603Z,101208.25
2022-11-29T18:16:51.311Z,101206.88
2022-11-29T18:19:20.220Z,101206.38
2022-11-29T18:21:48.932Z,101202.06
2022-11-29T18:24:15.693Z,101204.47
2022-11-29T18:26:42.908Z,101206.38
2022-11-29T18:29:10.004Z,101203.75
2022-11-29T18:31:39.404Z,101217.41
2022-11-29T18:34:09.357Z,101211.38
2022-11-29T18:36:42.994Z,101210.38
2022-11-29T18:39:15.222Z,101218.94
2022-11-29T18:41:44.611Z,101213.13
2022-11-29T18:44:13.923Z,101209.50
2022-11-29T18:46:43.058Z,101209.28
2022-11-29T18:49:11.896Z,101216.88
2022-11-29T18:51:39.098Z,101212.41
2022-11-29T18:54:06.713Z,101217.41
2022-11-29T18:56:35.103Z,101210.53
2022-11-29T18:59:08.407Z,101218.06
2022-11-29T19:01:40.406Z,101217.25
2022-11-29T19:04:09.131Z,101219.31
2022-11-29T19:06:39.780Z,101218.63
2022-11-29T19:09:11.904Z,101213.97
2022-11-29T19:11:39.142Z,101219.06
2022-11-29T19:14:14.048Z,101224.06
2022-11-29T19:16:44.127Z,101230.63
2022-11-29T19:19:11.280Z,101220.66
2022-11-29T19:21:39.767Z,101225.50
2022-11-29T19:24:13.369Z,101229.66
2022-11-29T19:26:40.617Z,101230.69
2022-11-29T19:29:07.221Z,101234.44
2022-11-29T19:31:33.831Z,101228.09
2022-11-29T19:34:00.395Z,101229.66
2022-11-29T19:36:31.514Z,101242.69
2022-11-29T19:39:00.959Z,101230.69
2022-11-29T19:41:33.182Z,101234.84
2022-11-29T19:44:02.502Z,101238.44
2022-11-29T19:46:32.240Z,101239.28
2022-11-29T19:49:00.042Z,101235.66
2022-11-29T19:51:28.636Z,101235.50
2022-11-29T19:53:57.323Z,101241.34
2022-11-29T19:56:24.510Z,101238.97
2022-11-29T19:58:51.600Z,101240.50
2022-11-29T20:01:20.531Z,101241.72
2022-11-29T20:03:48.474Z,101243.78
2022-11-29T20:06:15.958Z,101239.31
2022-11-29T20:08:43.181Z,101243.78
2022-11-29T20:11:13.199Z,101247.59
2022-11-29T20:13:42.607Z,101250.84
2022-11-29T20:16:12.609Z,101260.94
2022-11-29T20:18:45.843Z,101262.34
2022-11-29T20:21:23.450Z,101264.56
2022-11-29T20:24:01.419Z,101267.66
2022-11-29T20:26:30.257Z,101273.31
2022-11-29T20:28:57.032Z,101278.47
2022-11-29T20:31:23.789Z,101276.75
2022-11-29T20:33:52.687Z,101273.66
2022-11-29T20:36:36.577Z,101266.44
2022-11-29T20:39:52.448Z,101276.06
2022-11-29T20:42:39.247Z,101270.56
2022-11-29T20:45:08.684Z,101276.41
2022-11-29T20:47:53.856Z,101275.91
2022-11-29T20:50:26.202Z,101274.66
2022-11-29T20:53:30.199Z,101273.97
2022-11-29T20:55:57.381Z,101273.28
2022-11-29T20:58:26.195Z,101273.59
2022-11-29T21:00:54.395Z,101267.59
2022-11-29T21:03:22.290Z,101271.34
2022-11-29T21:05:49.549Z,101270.50
2022-11-29T21:08:17.953Z,101282.53
2022-11-29T21:10:45.530Z,101282.53
2022-11-29T21:13:13.504Z,101282.38
2022-11-29T21:15:41.492Z,101279.44
2022-11-29T21:18:19.698Z,101281.00
2022-11-29T21:21:08.274Z,101280.84
2022-11-29T21:23:44.026Z,101284.94
2022-11-29T21:26:20.484Z,101274.28
2022-11-29T21:28:57.509Z,101278.09
2022-11-29T21:31:24.592Z,101276.69
2022-11-29T21:33:51.438Z,101290.78
2022-11-29T21:36:18.917Z,101279.44
2022-11-29T21:38:50.887Z,101281.84
2022-11-29T21:41:20.646Z,101280.25
2022-11-29T21:46:34.595Z,101281.66
2022-11-29T21:49:01.414Z,101276.16
2022-11-29T21:51:27.978Z,101287.66
2022-11-29T21:53:54.525Z,101283.50
2022-11-29T21:56:21.106Z,101288.66
2022-11-29T21:58:47.684Z,101291.25
2022-11-29T22:01:18.203Z,101280.81
2022-11-29T22:03:45.863Z,101288.69
2022-11-29T22:06:16.382Z,101283.56
2022-11-29T22:08:43.725Z,101284.25
2022-11-29T22:11:15.870Z,101290.44
2022-11-29T22:14:02.824Z,101292.00
2022-11-29T22:16:29.819Z,101283.91
2022-11-29T22:18:56.576Z,101292.31
2022-11-29T22:21:23.765Z,101290.06
2022-11-29T22:23:52.238Z,101290.25
2022-11-29T22:26:18.863Z,101295.00
2022-11-29T22:28:45.530Z,101291.81
2022-11-29T22:31:12.455Z,101297.13
2022-11-29T22:33:39.852Z,101297.81
2022-11-29T22:36:11.487Z,101295.94
2022-11-29T22:38:39.046Z,101292.66
2022-11-29T22:41:09.885Z,101296.59
2022-11-29T22:43:37.837Z,101294.56
2022-11-29T22:46:15.504Z,101293.66
2022-11-29T22:48:43.884Z,101295.72
2022-11-29T22:51:22.138Z,101290.22
2022-11-29T22:53:53.914Z,101287.31
2022-11-29T22:56:22.386Z,101283.13
2022-11-29T22:58:49.295Z,101296.16
2022-11-29T23:01:18.372Z,101293.63
2022-11-29T23:03:48.316Z,101292.56
2022-11-29T23:06:17.320Z,101295.31
2022-11-29T23:08:45.689Z,101288.16
2022-11-29T23:11:18.796Z,101286.25
2022-11-29T23:13:46.046Z,101283.50
2022-11-29T23:16:15.897Z,101286.97
2022-11-29T23:18:42.997Z,101297.28
2022-11-29T23:21:13.112Z,101302.09
2022-11-29T23:23:40.298Z,101306.91
2022-11-29T23:26:08.664Z,101307.25
2022-11-29T23:28:35.943Z,101304.84
2022-11-29T23:31:02.765Z,101315.19
2022-11-29T23:33:29.679Z,101320.66
2022-11-29T23:36:01.607Z,101317.94
2022-11-29T23:38:29.228Z,101317.75
2022-11-29T23:40:55.895Z,101315.19
2022-11-29T23:43:22.872Z,101317.22
2022-11-29T23:45:49.895Z,101324.09
2022-11-29T23:48:16.574Z,101316.88
2022-11-29T23:50:43.645Z,101313.75
2022-11-29T23:53:13.272Z,101315.16
2022-11-29T23:55:39.946Z,101316.16
2022-11-29T23:58:06.790Z,101315.84
